createdAt,value
2022-09-18T00:01:39.522Z,11.60
2022-09-18T00:04:12.440Z,11.60
2022-09-18T00:06:41.874Z,11.50
2022-09-18T00:09:12.117Z,11.50
2022-09-18T00:11:44.569Z,11.50
2022-09-18T00:14:15.514Z,11.50
2022-09-18T00:16:44.094Z,11.50
2022-09-18T00:19:13.940Z,11.50
2022-09-18T00:21:44.344Z,11.50
2022-09-18T00:24:13.296Z,11.50
2022-09-18T00:26:41.502Z,11.50
2022-09-18T00:29:09.572Z,11.60
2022-09-18T00:31:38.667Z,11.60
2022-09-18T00:34:08.687Z,11.60
2022-09-18T00:36:39.100Z,11.60
2022-09-18T00:39:08.097Z,11.60
2022-09-18T00:41:38.437Z,11.60
2022-09-18T00:44:36.426Z,11.60
2022-09-18T00:47:25.262Z,11.60
2022-09-18T00:49:59.466Z,11.60
2022-09-18T00:52:32.070Z,11.60
2022-09-18T00:55:05.855Z,11.70
2022-09-18T00:57:35.977Z,11.70
2022-09-18T01:00:10.794Z,11.70
2022-09-18T01:02:39.860Z,11.70
2022-09-18T01:05:08.708Z,11.70
2022-09-18T01:07:50.645Z,11.70
2022-09-18T01:10:35.144Z,11.80
2022-09-18T01:13:11.590Z,11.70
2022-09-18T01:15:49.049Z,11.80
2022-09-18T01:18:25.359Z,11.70
2022-09-18T01:21:04.491Z,11.70
2022-09-18T01:24:06.550Z,11.80
2022-09-18T01:26:54.338Z,11.70
2022-09-18T01:29:31.834Z,11.70
2022-09-18T01:32:05.391Z,11.70
2022-09-18T01:34:38.365Z,11.70
2022-09-18T01:37:13.532Z,11.70
2022-09-18T01:39:46.293Z,11.70
2022-09-18T01:42:15.965Z,11.80
2022-09-18T01:44:45.877Z,11.70
2022-09-18T01:47:17.513Z,11.70
2022-09-18T01:49:48.524Z,11.70
2022-09-18T01:52:24.512Z,11.70
2022-09-18T01:54:56.650Z,11.80
2022-09-18T01:57:28.577Z,11.70
2022-09-18T02:00:03.330Z,11.70
2022-09-18T02:02:47.554Z,11.70
2022-09-18T02:05:20.341Z,11.70
2022-09-18T02:07:54.876Z,11.70
2022-09-18T02:10:25.238Z,11.70
2022-09-18T02:12:55.217Z,11.60
2022-09-18T02:15:27.976Z,11.70
2022-09-18T02:18:06.161Z,11.70
2022-09-18T02:20:42.212Z,11.70
2022-09-18T02:23:11.196Z,11.70
2022-09-18T02:25:44.218Z,11.70
2022-09-18T02:28:13.718Z,11.70
2022-09-18T02:30:44.713Z,11.70
2022-09-18T02:33:28.146Z,11.60
2022-09-18T02:36:25.853Z,11.60
2022-09-18T02:39:02.656Z,11.70
2022-09-18T02:41:40.275Z,11.60
2022-09-18T02:44:12.809Z,11.70
2022-09-18T02:46:57.244Z,11.70
2022-09-18T02:49:37.745Z,11.70
2022-09-18T02:52:12.885Z,11.70
2022-09-18T02:54:48.391Z,11.70
2022-09-18T02:57:21.782Z,11.70
2022-09-18T02:59:54.689Z,11.70
2022-09-18T03:02:25.848Z,11.70
2022-09-18T03:04:56.095Z,11.80
2022-09-18T03:07:28.667Z,11.80
2022-09-18T03:09:57.971Z,11.80
2022-09-18T03:12:26.015Z,11.80
2022-09-18T03:14:54.000Z,11.90
2022-09-18T03:17:23.486Z,11.90
2022-09-18T03:19:52.421Z,11.80
2022-09-18T03:22:20.390Z,11.80
2022-09-18T03:24:49.516Z,11.90
2022-09-18T03:27:18.938Z,11.90
2022-09-18T03:29:47.257Z,11.80
2022-09-18T03:32:17.019Z,11.90
2022-09-18T03:34:52.001Z,11.80
2022-09-18T03:37:20.033Z,11.80
2022-09-18T03:39:48.827Z,11.80
2022-09-18T03:42:16.958Z,11.80
2022-09-18T03:44:44.936Z,11.90
2022-09-18T03:47:20.747Z,11.80
2022-09-18T03:49:49.329Z,11.90
2022-09-18T03:52:19.255Z,11.90
2022-09-18T03:55:02.953Z,11.90
2022-09-18T03:57:52.945Z,11.90
2022-09-18T04:00:32.085Z,11.90
2022-09-18T04:03:06.542Z,11.90
2022-09-18T04:06:00.587Z,11.90
2022-09-18T04:08:58.529Z,11.90
2022-09-18T04:11:36.084Z,11.90
2022-09-18T04:14:06.811Z,11.90
2022-09-18T04:16:35.395Z,11.90
2022-09-18T04:19:03.933Z,11.90
2022-09-18T04:21:34.132Z,12.00
2022-09-18T04:24:03.869Z,12.00
2022-09-18T04:26:31.902Z,12.00
2022-09-18T04:29:01.579Z,12.00
2022-09-18T04:31:30.612Z,12.00
2022-09-18T04:34:02.944Z,12.00
2022-09-18T04:36:31.109Z,12.10
2022-09-18T04:38:59.327Z,12.00
2022-09-18T04:41:28.743Z,12.00
2022-09-18T04:43:57.929Z,12.10
2022-09-18T04:46:26.112Z,12.00
2022-09-18T04:48:54.801Z,12.10
2022-09-18T04:51:26.088Z,12.10
2022-09-18T04:53:56.964Z,12.10
2022-09-18T04:56:25.772Z,12.10
2022-09-18T04:58:56.476Z,12.10
2022-09-18T05:01:24.557Z,12.10
2022-09-18T05:03:55.128Z,12.10
2022-09-18T05:06:35.195Z,12.10
2022-09-18T05:09:03.455Z,12.20
2022-09-18T05:11:31.680Z,12.10
2022-09-18T05:14:01.236Z,12.20
2022-09-18T05:16:32.399Z,12.20
2022-09-18T05:19:23.882Z,12.20
2022-09-18T05:21:55.780Z,12.20
2022-09-18T05:24:23.854Z,12.20
2022-09-18T05:26:52.163Z,12.20
2022-09-18T05:29:24.039Z,12.20
2022-09-18T05:31:56.382Z,12.20
2022-09-18T05:34:24.387Z,12.20
2022-09-18T05:36:52.494Z,12.20
2022-09-18T05:39:20.444Z,12.30
2022-09-18T05:41:51.135Z,12.20
2022-09-18T05:44:19.967Z,12.20
2022-09-18T05:46:50.329Z,12.20
2022-09-18T05:49:18.885Z,12.20
2022-09-18T05:51:46.909Z,12.20
2022-09-18T05:54:16.747Z,12.20
2022-09-18T05:56:51.254Z,12.30
2022-09-18T05:59:22.463Z,12.30
2022-09-18T06:01:57.848Z,12.30
2022-09-18T06:04:43.434Z,12.30
2022-09-18T06:07:16.218Z,12.40
2022-09-18T06:09:44.323Z,12.40
2022-09-18T06:12:13.143Z,12.40
2022-09-18T06:14:41.342Z,12.40
2022-09-18T06:17:10.812Z,12.40
2022-09-18T06:19:41.068Z,12.50
2022-09-18T06:22:10.130Z,12.50
2022-09-18T06:24:38.201Z,12.50
2022-09-18T06:27:11.648Z,12.60
2022-09-18T06:29:40.684Z,12.60
2022-09-18T06:32:29.765Z,12.60
2022-09-18T06:34:57.869Z,12.60
2022-09-18T06:37:27.442Z,12.70
2022-09-18T06:40:11.582Z,12.70
2022-09-18T06:43:10.840Z,12.60
2022-09-18T06:45:58.416Z,12.60
2022-09-18T06:48:30.270Z,12.70
2022-09-18T06:51:02.119Z,12.70
2022-09-18T06:53:35.968Z,12.70
2022-09-18T06:56:05.588Z,12.80
2022-09-18T06:58:36.752Z,12.80
2022-09-18T07:01:05.569Z,12.80
2022-09-18T07:03:41.750Z,12.80
2022-09-18T07:06:21.409Z,12.80
2022-09-18T07:08:51.749Z,12.80
2022-09-18T07:11:40.703Z,12.80
2022-09-18T07:14:10.055Z,12.80
2022-09-18T07:16:38.371Z,12.80
2022-09-18T07:19:07.967Z,12.70
2022-09-18T07:21:39.634Z,12.70
2022-09-18T07:24:08.084Z,12.70
2022-09-18T07:26:36.162Z,12.60
2022-09-18T07:29:09.855Z,12.60
2022-09-18T07:31:39.049Z,12.70
2022-09-18T07:34:12.479Z,12.70
2022-09-18T07:36:40.518Z,12.60
2022-09-18T07:39:08.631Z,12.60
2022-09-18T07:41:56.829Z,12.60
2022-09-18T07:44:26.206Z,12.60
2022-09-18T07:46:55.383Z,12.60
2022-09-18T07:49:26.117Z,12.60
2022-09-18T07:51:54.469Z,12.60
2022-09-18T07:54:22.533Z,12.60
2022-09-18T07:56:59.097Z,12.60
2022-09-18T07:59:30.957Z,12.50
2022-09-18T08:02:02.717Z,12.50
2022-09-18T08:04:34.491Z,12.40
2022-09-18T08:07:11.130Z,12.50
2022-09-18T08:09:56.232Z,12.40
2022-09-18T08:12:42.798Z,12.40
2022-09-18T08:15:24.324Z,12.40
2022-09-18T08:18:12.479Z,12.50
2022-09-18T08:20:58.997Z,12.60
2022-09-18T08:23:46.490Z,12.50
2022-09-18T08:26:18.836Z,12.50
2022-09-18T08:28:50.885Z,12.50
2022-09-18T08:31:19.193Z,12.50
2022-09-18T08:33:47.345Z,12.50
2022-09-18T08:36:17.716Z,12.60
2022-09-18T08:39:12.444Z,12.60
2022-09-18T08:42:07.419Z,12.50
2022-09-18T08:44:45.933Z,12.60
2022-09-18T08:47:20.356Z,12.70
2022-09-18T08:49:54.533Z,12.80
2022-09-18T08:52:29.875Z,12.80
2022-09-18T08:55:11.810Z,12.90
2022-09-18T08:57:50.935Z,13.10
2022-09-18T09:00:32.822Z,13.30
2022-09-18T09:03:28.031Z,13.60
2022-09-18T09:05:59.963Z,14.00
2022-09-18T09:09:00.954Z,14.20
2022-09-18T09:11:40.363Z,14.40
2022-09-18T09:14:55.549Z,14.70
2022-09-18T09:17:34.071Z,14.90
2022-09-18T09:20:20.061Z,15.20
2022-09-18T09:22:55.071Z,15.30
2022-09-18T09:25:34.123Z,15.40
2022-09-18T09:28:29.739Z,15.30
2022-09-18T09:31:04.490Z,15.40
2022-09-18T09:33:53.080Z,15.40
2022-09-18T09:36:38.311Z,15.50
2022-09-18T09:39:15.293Z,15.50
2022-09-18T09:41:52.849Z,15.50
2022-09-18T09:44:32.625Z,15.60
2022-09-18T09:47:16.140Z,15.90
2022-09-18T09:49:51.851Z,16.10
2022-09-18T09:52:25.364Z,16.50
2022-09-18T09:54:58.128Z,16.40
2022-09-18T09:57:36.125Z,16.40
2022-09-18T10:00:11.359Z,16.40
2022-09-18T10:03:30.183Z,16.40
2022-09-18T10:06:05.754Z,16.40
2022-09-18T10:08:39.612Z,16.60
2022-09-18T10:11:11.846Z,16.80
2022-09-18T10:13:46.881Z,17.00
2022-09-18T10:16:20.633Z,17.30
2022-09-18T10:18:51.428Z,17.50
2022-09-18T10:21:22.072Z,17.70
2022-09-18T10:23:55.904Z,17.80
2022-09-18T10:26:31.251Z,18.00
2022-09-18T10:29:02.434Z,18.00
2022-09-18T10:31:48.387Z,18.10
2022-09-18T10:34:33.886Z,18.20
2022-09-18T10:37:02.609Z,18.30
2022-09-18T10:39:32.464Z,18.20
2022-09-18T10:42:07.082Z,18.20
2022-09-18T10:44:49.074Z,18.00
2022-09-18T10:47:30.594Z,18.00
2022-09-18T10:50:17.230Z,17.90
2022-09-18T10:52:47.377Z,17.90
2022-09-18T10:55:24.416Z,17.80
2022-09-18T10:58:08.369Z,17.70
2022-09-18T11:00:40.718Z,17.80
2022-09-18T11:03:32.355Z,17.70
2022-09-18T11:06:02.798Z,17.50
2022-09-18T11:08:34.836Z,17.50
2022-09-18T11:11:07.092Z,17.60
2022-09-18T11:13:47.208Z,17.60
2022-09-18T11:16:27.010Z,17.60
2022-09-18T11:19:07.837Z,17.70
2022-09-18T11:21:46.361Z,17.70
2022-09-18T11:24:24.145Z,17.80
2022-09-18T11:26:57.942Z,17.80
2022-09-18T11:29:31.745Z,17.90
2022-09-18T11:32:11.745Z,17.90
2022-09-18T11:34:46.076Z,17.90
2022-09-18T11:37:23.126Z,17.90
2022-09-18T11:39:59.811Z,18.00
2022-09-18T11:42:29.436Z,18.00
2022-09-18T11:45:10.564Z,18.10
2022-09-18T11:47:47.170Z,18.20
2022-09-18T11:50:18.009Z,18.30
2022-09-18T11:52:49.280Z,18.40
2022-09-18T11:55:29.470Z,18.30
2022-09-18T11:58:02.654Z,18.30
2022-09-18T12:00:36.478Z,18.20
2022-09-18T12:03:16.888Z,18.10
2022-09-18T12:05:54.780Z,18.00
2022-09-18T12:08:44.806Z,17.80
2022-09-18T12:11:22.426Z,17.60
2022-09-18T12:14:01.644Z,17.40
2022-09-18T12:16:45.583Z,17.20
2022-09-18T12:19:21.928Z,17.20
2022-09-18T12:21:57.971Z,17.20
2022-09-18T12:24:27.443Z,17.10
2022-09-18T12:27:13.393Z,17.00
2022-09-18T12:30:04.799Z,16.90
2022-09-18T12:32:52.911Z,17.00
2022-09-18T12:35:35.161Z,17.00
2022-09-18T12:38:13.317Z,17.00
2022-09-18T12:41:01.750Z,17.10
2022-09-18T12:44:01.249Z,17.10
2022-09-18T12:46:38.331Z,17.20
2022-09-18T12:49:27.816Z,17.20
2022-09-18T12:52:07.008Z,17.10
2022-09-18T12:54:56.283Z,17.00
2022-09-18T12:57:40.810Z,17.00
2022-09-18T13:00:12.407Z,17.00
2022-09-18T13:02:52.411Z,16.80
2022-09-18T13:05:26.938Z,16.70
2022-09-18T13:08:03.029Z,16.70
2022-09-18T13:10:37.439Z,16.70
2022-09-18T13:13:11.848Z,16.60
2022-09-18T13:15:44.481Z,16.60
2022-09-18T13:18:23.488Z,16.50
2022-09-18T13:20:52.917Z,16.50
2022-09-18T13:23:28.093Z,16.40
2022-09-18T13:25:57.683Z,16.30
2022-09-18T13:28:28.296Z,16.30
2022-09-18T13:31:24.728Z,16.30
2022-09-18T13:33:55.955Z,16.20
2022-09-18T13:36:30.177Z,16.10
2022-09-18T13:39:02.949Z,16.00
2022-09-18T13:41:44.244Z,16.00
2022-09-18T13:44:20.629Z,15.90
2022-09-18T13:46:50.293Z,15.90
2022-09-18T13:49:23.344Z,15.90
2022-09-18T13:51:51.754Z,15.80
2022-09-18T13:54:29.826Z,15.80
2022-09-18T13:57:20.816Z,15.90
2022-09-18T13:59:51.952Z,15.80
2022-09-18T14:02:34.878Z,15.70
2022-09-18T14:05:33.921Z,15.70
2022-09-18T14:08:22.483Z,15.70
2022-09-18T14:11:15.813Z,15.60
2022-09-18T14:13:51.407Z,15.60
2022-09-18T14:16:41.390Z,15.50
2022-09-18T14:19:32.867Z,15.40
2022-09-18T14:22:02.150Z,15.50
2022-09-18T14:25:00.023Z,15.40
2022-09-18T14:27:38.887Z,15.40
2022-09-18T14:30:22.226Z,15.40
2022-09-18T14:33:17.756Z,15.30
2022-09-18T14:35:54.239Z,15.20
2022-09-18T14:38:28.770Z,15.20
2022-09-18T14:41:09.138Z,15.00
2022-09-18T14:43:41.087Z,15.00
2022-09-18T14:46:18.975Z,14.90
2022-09-18T14:48:47.132Z,14.80
2022-09-18T14:51:21.251Z,14.80
2022-09-18T14:53:51.686Z,14.80
2022-09-18T14:56:24.704Z,14.70
2022-09-18T14:58:54.251Z,14.70
2022-09-18T15:01:25.473Z,14.60
2022-09-18T15:03:56.019Z,14.60
2022-09-18T15:06:29.520Z,14.60
2022-09-18T15:08:59.127Z,14.50
2022-09-18T15:11:37.753Z,14.40
2022-09-18T15:14:21.704Z,14.30
2022-09-18T15:16:57.324Z,14.40
2022-09-18T15:19:25.807Z,14.30
2022-09-18T15:21:54.410Z,14.30
2022-09-18T15:24:22.892Z,14.20
2022-09-18T15:26:56.096Z,14.20
2022-09-18T15:29:32.002Z,14.20
2022-09-18T15:32:03.009Z,14.30
2022-09-18T15:34:37.530Z,14.30
2022-09-18T15:37:06.738Z,14.20
2022-09-18T15:39:39.858Z,14.20
2022-09-18T15:42:25.800Z,14.20
2022-09-18T15:45:21.657Z,14.20
2022-09-18T15:47:50.624Z,14.20
2022-09-18T15:50:45.632Z,14.10
2022-09-18T15:53:34.836Z,14.10
2022-09-18T15:56:06.600Z,14.20
2022-09-18T15:58:42.362Z,14.20
2022-09-18T16:01:29.021Z,14.20
2022-09-18T16:04:20.985Z,14.10
2022-09-18T16:06:55.565Z,14.10
2022-09-18T16:09:40.354Z,14.10
2022-09-18T16:12:28.308Z,14.10
2022-09-18T16:15:15.314Z,14.10
2022-09-18T16:18:06.103Z,14.10
2022-09-18T16:20:39.569Z,14.10
2022-09-18T16:23:21.152Z,14.10
2022-09-18T16:26:07.110Z,14.10
2022-09-18T16:28:42.696Z,14.00
2022-09-18T16:31:12.664Z,14.00
2022-09-18T16:33:51.748Z,14.00
2022-09-18T16:36:28.217Z,14.00
2022-09-18T16:38:57.092Z,14.00
2022-09-18T16:41:25.780Z,14.00
2022-09-18T16:43:54.054Z,14.00
2022-09-18T16:46:24.077Z,14.00
2022-09-18T16:48:53.772Z,14.00
2022-09-18T16:51:22.901Z,13.90
2022-09-18T16:53:51.144Z,13.90
2022-09-18T16:56:25.412Z,13.90
2022-09-18T16:58:54.204Z,13.90
2022-09-18T17:01:23.316Z,13.90
2022-09-18T17:03:55.240Z,13.90
2022-09-18T17:06:23.258Z,13.80
2022-09-18T17:08:51.254Z,13.80
2022-09-18T17:11:19.367Z,13.90
2022-09-18T17:13:47.521Z,13.90
2022-09-18T17:16:30.367Z,13.90
2022-09-18T17:19:05.513Z,13.90
2022-09-18T17:21:34.044Z,13.90
2022-09-18T17:24:03.267Z,13.90
2022-09-18T17:26:31.751Z,13.90
2022-09-18T17:28:59.991Z,13.80
2022-09-18T17:31:28.845Z,13.80
2022-09-18T17:33:57.346Z,13.90
2022-09-18T17:36:26.793Z,13.90
2022-09-18T17:38:54.812Z,13.80
2022-09-18T17:41:22.804Z,13.90
2022-09-18T17:43:53.129Z,13.80
2022-09-18T17:46:22.075Z,13.80
2022-09-18T17:48:54.195Z,13.70
2022-09-18T17:51:27.665Z,13.80
2022-09-18T17:54:00.938Z,13.80
2022-09-18T17:56:30.731Z,13.70
2022-09-18T17:59:00.215Z,13.70
2022-09-18T18:01:30.298Z,13.70
2022-09-18T18:03:58.910Z,13.70
2022-09-18T18:06:27.702Z,13.70
2022-09-18T18:08:56.391Z,13.70
2022-09-18T18:11:29.625Z,13.70
2022-09-18T18:13:57.643Z,13.60
2022-09-18T18:16:27.510Z,13.60
2022-09-18T18:18:57.336Z,13.60
2022-09-18T18:21:26.916Z,13.60
2022-09-18T18:23:59.081Z,13.50
2022-09-18T18:26:29.670Z,13.40
2022-09-18T18:28:58.491Z,13.40
2022-09-18T18:31:26.997Z,13.40
2022-09-18T18:33:56.144Z,13.40
2022-09-18T18:36:25.638Z,13.40
2022-09-18T18:38:55.974Z,13.40
2022-09-18T18:41:25.963Z,13.30
2022-09-18T18:43:56.807Z,13.20
2022-09-18T18:46:27.256Z,13.20
2022-09-18T18:49:02.109Z,13.10
2022-09-18T18:51:32.504Z,13.10
2022-09-18T18:54:02.330Z,13.00
2022-09-18T18:56:32.057Z,13.00
2022-09-18T18:59:02.904Z,12.90
2022-09-18T19:01:32.222Z,12.90
2022-09-18T19:04:02.377Z,12.90
2022-09-18T19:06:31.485Z,12.90
2022-09-18T19:09:03.516Z,12.90
2022-09-18T19:11:32.698Z,12.90
2022-09-18T19:14:02.111Z,12.90
2022-09-18T19:16:32.351Z,12.90
2022-09-18T19:19:01.107Z,12.90
2022-09-18T19:21:30.039Z,12.80
2022-09-18T19:23:59.478Z,12.80
2022-09-18T19:26:29.298Z,12.80
2022-09-18T19:28:59.686Z,12.80
2022-09-18T19:31:30.188Z,12.80
2022-09-18T19:33:58.281Z,12.80
2022-09-18T19:36:29.588Z,12.70
2022-09-18T19:38:59.712Z,12.80
2022-09-18T19:41:35.984Z,12.80
2022-09-18T19:44:06.663Z,12.70
2022-09-18T19:46:37.131Z,12.70
2022-09-18T19:49:07.649Z,12.70
2022-09-18T19:51:37.917Z,12.70
2022-09-18T19:54:06.946Z,12.70
2022-09-18T19:56:43.341Z,12.60
2022-09-18T19:59:17.690Z,12.60
2022-09-18T20:01:59.747Z,12.60
2022-09-18T20:04:28.880Z,12.60
2022-09-18T20:07:01.818Z,12.60
2022-09-18T20:09:30.688Z,12.50
2022-09-18T20:12:04.940Z,12.60
2022-09-18T20:14:34.121Z,12.50
2022-09-18T20:17:03.688Z,12.50
2022-09-18T20:19:36.885Z,12.40
2022-09-18T20:22:11.708Z,12.40
2022-09-18T20:24:40.664Z,12.40
2022-09-18T20:27:08.890Z,12.40
2022-09-18T20:29:40.518Z,12.30
2022-09-18T20:32:10.179Z,12.40
2022-09-18T20:34:38.281Z,12.30
2022-09-18T20:37:11.301Z,12.20
2022-09-18T20:39:39.571Z,12.20
2022-09-18T20:42:08.623Z,12.20
2022-09-18T20:44:39.473Z,12.20
2022-09-18T20:47:11.357Z,12.20
2022-09-18T20:49:40.194Z,12.10
2022-09-18T20:52:14.485Z,12.10
2022-09-18T20:54:47.891Z,12.10
2022-09-18T20:57:18.900Z,12.10
2022-09-18T20:59:47.057Z,12.10
2022-09-18T21:02:19.237Z,12.00
2022-09-18T21:04:50.720Z,12.00
2022-09-18T21:07:22.490Z,12.00
2022-09-18T21:09:50.676Z,12.00
2022-09-18T21:12:26.351Z,12.00
2022-09-18T21:14:57.474Z,11.90
2022-09-18T21:17:31.580Z,11.90
2022-09-18T21:20:02.314Z,12.00
2022-09-18T21:22:31.746Z,12.00
2022-09-18T21:25:10.740Z,11.90
2022-09-18T21:27:38.861Z,12.00
2022-09-18T21:30:08.266Z,12.00
2022-09-18T21:32:39.758Z,12.00
2022-09-18T21:35:08.641Z,12.00
2022-09-18T21:37:38.582Z,12.00
2022-09-18T21:40:07.714Z,11.90
2022-09-18T21:42:39.396Z,11.90
2022-09-18T21:45:16.376Z,12.00
2022-09-18T21:47:56.734Z,12.00
2022-09-18T21:50:30.121Z,12.00
2022-09-18T21:53:08.638Z,12.10
2022-09-18T21:55:38.357Z,12.10
2022-09-18T21:58:08.195Z,12.10
2022-09-18T22:00:43.755Z,12.10
2022-09-18T22:03:19.313Z,12.00
2022-09-18T22:05:47.749Z,12.00
2022-09-18T22:08:17.397Z,12.00
2022-09-18T22:10:47.253Z,12.00
2022-09-18T22:13:15.286Z,12.00
2022-09-18T22:15:43.315Z,12.00
2022-09-18T22:18:12.703Z,12.00
2022-09-18T22:20:40.791Z,12.10
2022-09-18T22:23:08.775Z,12.10
2022-09-18T22:25:39.244Z,12.00
2022-09-18T22:28:09.608Z,12.00
2022-09-18T22:30:43.084Z,12.00
2022-09-18T22:33:12.478Z,11.90
2022-09-18T22:35:40.452Z,11.90
2022-09-18T22:38:08.455Z,12.00
2022-09-18T22:40:38.681Z,12.00
2022-09-18T22:43:06.712Z,11.90
2022-09-18T22:45:36.791Z,11.90
2022-09-18T22:48:07.167Z,12.00
2022-09-18T22:50:36.667Z,12.00
2022-09-18T22:53:04.803Z,12.00
2022-09-18T22:55:34.845Z,12.00
2022-09-18T22:58:04.596Z,12.00
2022-09-18T23:00:32.659Z,12.10
2022-09-18T23:03:01.141Z,12.10
2022-09-18T23:05:29.119Z,12.10
2022-09-18T23:07:58.426Z,12.20
2022-09-18T23:10:26.395Z,12.20
2022-09-18T23:12:54.416Z,12.20
2022-09-18T23:15:22.417Z,12.20
2022-09-18T23:17:50.694Z,12.10
2022-09-18T23:20:18.756Z,12.10
2022-09-18T23:22:46.761Z,12.10
2022-09-18T23:25:16.227Z,12.00
2022-09-18T23:27:44.283Z,12.00
2022-09-18T23:30:12.841Z,12.00
2022-09-18T23:32:40.856Z,11.90
2022-09-18T23:35:09.776Z,12.00
2022-09-18T23:37:37.763Z,11.90
2022-09-18T23:40:06.944Z,11.90
2022-09-18T23:42:38.855Z,11.80
2022-09-18T23:45:07.703Z,11.80
2022-09-18T23:47:38.300Z,11.80
2022-09-18T23:50:07.199Z,11.80
2022-09-18T23:52:35.182Z,11.80
2022-09-18T23:55:03.215Z,11.80
2022-09-18T23:57:31.188Z,11.80
